createdAt,value
2019-05-09T00:02:00.024Z,100227.30
2019-05-09T00:04:33.469Z,100228.64
2019-05-09T00:07:05.151Z,100236.70
2019-05-09T00:09:36.569Z,100235.02
2019-05-09T00:12:08.088Z,100234.69
2019-05-09T00:14:43.371Z,100230.16
2019-05-09T00:17:14.927Z,100232.34
2019-05-09T00:19:46.432Z,100241.41
2019-05-09T00:22:18.891Z,100257.53
2019-05-09T00:24:50.525Z,100255.20
2019-05-09T00:27:23.184Z,100262.27
2019-05-09T00:29:55.371Z,100263.47
2019-05-09T00:32:30.126Z,100269.38
2019-05-09T00:35:18.754Z,100264.00
2019-05-09T00:38:04.475Z,100263.52
2019-05-09T00:40:36.133Z,100260.75
2019-05-09T00:43:09.969Z,100254.16
2019-05-09T00:46:04.133Z,100263.02
2019-05-09T00:48:54.046Z,100265.17
2019-05-09T00:51:26.110Z,100263.22
2019-05-09T00:53:57.959Z,100267.94
2019-05-09T00:56:29.940Z,100251.16
2019-05-09T00:59:04.255Z,100249.81
2019-05-09T01:01:37.430Z,100248.88
2019-05-09T01:04:09.997Z,100249.07
2019-05-09T01:06:43.435Z,100249.61
2019-05-09T01:09:17.111Z,100239.53
2019-05-09T01:11:48.978Z,100232.92
2019-05-09T01:14:23.493Z,100228.59
2019-05-09T01:16:56.998Z,100222.54
2019-05-09T01:19:28.694Z,100215.70
2019-05-09T01:22:00.416Z,100222.47
2019-05-09T01:24:33.730Z,100224.12
2019-05-09T01:27:05.466Z,100218.75
2019-05-09T01:29:37.024Z,100222.98
2019-05-09T01:32:25.580Z,100223.67
2019-05-09T01:34:57.150Z,100216.28
2019-05-09T01:37:29.238Z,100213.79
2019-05-09T01:40:00.711Z,100206.27
2019-05-09T01:42:33.732Z,100203.29
2019-05-09T01:45:07.329Z,100198.77
2019-05-09T01:47:38.907Z,100200.77
2019-05-09T01:50:10.590Z,100201.80
2019-05-09T01:52:43.884Z,100201.66
2019-05-09T01:55:16.231Z,100211.36
2019-05-09T01:57:48.131Z,100203.50
2019-05-09T02:00:20.563Z,100207.39
2019-05-09T02:02:54.072Z,100212.11
2019-05-09T02:05:26.180Z,100207.11
2019-05-09T02:07:59.550Z,100199.70
2019-05-09T02:10:31.079Z,100201.84
2019-05-09T02:13:03.157Z,100200.67
2019-05-09T02:15:53.960Z,100195.97
2019-05-09T02:18:28.972Z,100198.01
2019-05-09T02:21:00.687Z,100195.53
2019-05-09T02:23:33.923Z,100197.31
2019-05-09T02:26:05.682Z,100198.16
2019-05-09T02:28:37.096Z,100196.02
2019-05-09T02:31:10.609Z,100190.94
2019-05-09T02:33:45.524Z,100184.38
2019-05-09T02:36:18.735Z,100181.98
2019-05-09T02:38:49.108Z,100181.20
2019-05-09T02:41:20.703Z,100182.54
2019-05-09T02:43:52.622Z,100189.77
2019-05-09T02:46:41.044Z,100181.54
2019-05-09T02:49:13.043Z,100188.95
2019-05-09T02:51:44.904Z,100184.25
2019-05-09T02:54:19.188Z,100186.58
2019-05-09T02:56:49.789Z,100180.86
2019-05-09T02:59:39.845Z,100181.22
2019-05-09T03:02:29.446Z,100179.59
2019-05-09T03:05:01.893Z,100182.91
2019-05-09T03:07:49.739Z,100189.31
2019-05-09T03:10:23.039Z,100189.46
2019-05-09T03:12:55.295Z,100188.27
2019-05-09T03:15:29.437Z,100182.25
2019-05-09T03:18:01.080Z,100177.89
2019-05-09T03:20:39.380Z,100177.89
2019-05-09T03:23:11.158Z,100174.22
2019-05-09T03:25:43.015Z,100170.84
2019-05-09T03:28:33.376Z,100165.81
2019-05-09T03:31:09.636Z,100155.42
2019-05-09T03:33:42.653Z,100153.19
2019-05-09T03:36:14.417Z,100153.01
2019-05-09T03:38:47.570Z,100153.09
2019-05-09T03:41:19.190Z,100152.95
2019-05-09T03:43:51.452Z,100153.99
2019-05-09T03:46:24.725Z,100150.99
2019-05-09T03:48:58.349Z,100150.99
2019-05-09T03:51:29.971Z,100147.02
2019-05-09T03:54:01.368Z,100144.34
2019-05-09T03:56:51.052Z,100138.48
2019-05-09T03:59:22.462Z,100138.92
2019-05-09T04:01:54.269Z,100138.75
2019-05-09T04:04:27.943Z,100146.61
2019-05-09T04:06:58.920Z,100147.59
2019-05-09T04:09:30.592Z,100153.09
2019-05-09T04:12:03.436Z,100156.62
2019-05-09T04:14:37.542Z,100163.19
2019-05-09T04:17:10.788Z,100162.80
2019-05-09T04:19:42.427Z,100155.26
2019-05-09T04:22:18.190Z,100151.25
2019-05-09T04:24:50.960Z,100152.43
2019-05-09T04:27:24.118Z,100159.42
2019-05-09T04:29:57.456Z,100153.91
2019-05-09T04:32:28.901Z,100154.92
2019-05-09T04:35:01.844Z,100149.75
2019-05-09T04:37:33.700Z,100154.89
2019-05-09T04:40:08.128Z,100153.83
2019-05-09T04:42:43.033Z,100155.17
2019-05-09T04:45:17.729Z,100159.55
2019-05-09T04:47:50.293Z,100164.69
2019-05-09T04:50:24.877Z,100149.87
2019-05-09T04:52:57.883Z,100161.52
2019-05-09T04:55:30.170Z,100163.80
2019-05-09T04:58:01.871Z,100164.24
2019-05-09T05:00:51.227Z,100162.12
2019-05-09T05:03:22.748Z,100167.72
2019-05-09T05:05:55.124Z,100162.73
2019-05-09T05:08:28.482Z,100165.95
2019-05-09T05:11:00.090Z,100162.14
2019-05-09T05:13:31.755Z,100134.71
2019-05-09T05:16:05.328Z,100164.30
2019-05-09T05:18:37.393Z,100161.80
2019-05-09T05:21:09.359Z,100161.12
2019-05-09T05:23:50.747Z,100164.11
2019-05-09T05:26:22.881Z,100161.53
2019-05-09T05:28:58.083Z,100157.17
2019-05-09T05:31:29.498Z,100152.39
2019-05-09T05:34:08.773Z,100155.45
2019-05-09T05:36:43.219Z,100166.51
2019-05-09T05:39:17.866Z,100156.80
2019-05-09T05:41:59.827Z,100155.27
2019-05-09T05:44:31.325Z,100159.05
2019-05-09T05:47:18.015Z,100158.56
2019-05-09T05:49:51.089Z,100159.23
2019-05-09T05:52:24.646Z,100165.16
2019-05-09T05:54:58.221Z,100157.39
2019-05-09T05:57:29.681Z,100154.04
2019-05-09T06:00:01.958Z,100153.11
2019-05-09T06:02:34.747Z,100156.97
2019-05-09T06:05:08.467Z,100168.29
2019-05-09T06:07:41.793Z,100160.64
2019-05-09T06:10:14.413Z,100156.48
2019-05-09T06:12:51.767Z,100159.36
2019-05-09T06:15:28.961Z,100170.80
2019-05-09T06:18:00.566Z,100159.72
2019-05-09T06:20:32.865Z,100156.67
2019-05-09T06:23:05.302Z,100156.00
2019-05-09T06:25:41.079Z,100148.42
2019-05-09T06:28:13.564Z,100137.58
2019-05-09T06:30:47.240Z,100144.91
2019-05-09T06:33:20.119Z,100147.01
2019-05-09T06:35:51.886Z,100151.16
2019-05-09T06:38:27.613Z,100150.79
2019-05-09T06:40:59.280Z,100141.63
2019-05-09T06:43:39.418Z,100149.19
2019-05-09T06:46:27.810Z,100160.52
2019-05-09T06:49:20.128Z,100152.41
2019-05-09T06:51:38.744Z,100164.44
2019-05-09T06:54:11.366Z,100153.00
2019-05-09T06:56:47.577Z,100175.34
2019-05-09T06:59:21.429Z,100174.06
2019-05-09T07:01:57.602Z,100170.31
2019-05-09T07:04:33.072Z,100170.92
2019-05-09T07:07:12.458Z,100165.22
2019-05-09T07:09:58.738Z,100157.09
2019-05-09T07:12:30.824Z,100154.23
2019-05-09T07:15:03.020Z,100158.01
2019-05-09T07:17:34.421Z,100147.61
2019-05-09T07:20:08.392Z,100149.04
2019-05-09T07:22:42.260Z,100147.27
2019-05-09T07:25:18.774Z,100152.56
2019-05-09T07:27:53.672Z,100157.09
2019-05-09T07:30:33.100Z,100153.95
2019-05-09T07:33:15.416Z,100152.09
2019-05-09T07:35:48.242Z,100151.18
2019-05-09T07:38:30.697Z,100161.76
2019-05-09T07:41:02.187Z,100156.46
2019-05-09T07:43:35.173Z,100163.66
2019-05-09T07:46:09.204Z,100164.72
2019-05-09T07:48:42.598Z,100163.50
2019-05-09T07:51:23.642Z,100164.80
2019-05-09T07:53:55.278Z,100157.89
2019-05-09T07:56:28.461Z,100149.52
2019-05-09T07:59:00.261Z,100142.58
2019-05-09T08:01:32.076Z,100151.05
2019-05-09T08:04:03.864Z,100149.92
2019-05-09T08:06:37.803Z,100161.93
2019-05-09T08:09:12.273Z,100166.81
2019-05-09T08:11:50.985Z,100164.36
2019-05-09T08:14:23.239Z,100164.87
2019-05-09T08:16:58.026Z,100169.03
2019-05-09T08:19:38.495Z,100172.23
2019-05-09T08:22:11.581Z,100165.36
2019-05-09T08:24:48.372Z,100167.05
2019-05-09T08:27:20.242Z,100161.02
2019-05-09T08:29:53.749Z,100168.91
2019-05-09T08:32:28.590Z,100166.58
2019-05-09T08:35:02.360Z,100150.42
2019-05-09T08:37:34.863Z,100155.94
2019-05-09T08:40:07.971Z,100149.66
2019-05-09T08:42:41.854Z,100149.73
2019-05-09T08:45:26.933Z,100156.44
2019-05-09T08:47:48.569Z,100158.17
2019-05-09T08:50:24.273Z,100161.94
2019-05-09T08:52:57.633Z,100155.09
2019-05-09T08:55:29.953Z,100161.31
2019-05-09T08:58:02.886Z,100157.66
2019-05-09T09:00:34.916Z,100164.51
2019-05-09T09:03:07.964Z,100170.66
2019-05-09T09:05:43.155Z,100151.41
2019-05-09T09:08:12.936Z,100151.41
2019-05-09T09:10:44.450Z,100153.56
2019-05-09T09:13:17.578Z,100153.45
2019-05-09T09:16:08.502Z,100156.44
2019-05-09T09:18:24.311Z,100166.66
2019-05-09T09:20:56.110Z,100171.97
2019-05-09T09:23:42.834Z,100174.39
2019-05-09T09:26:02.551Z,100174.39
2019-05-09T09:28:37.798Z,100168.23
2019-05-09T09:31:10.819Z,100168.93
2019-05-09T09:33:44.485Z,100177.41
2019-05-09T09:36:17.843Z,100180.06
2019-05-09T09:38:53.796Z,100176.36
2019-05-09T09:41:38.297Z,100179.98
2019-05-09T09:44:17.909Z,100176.91
2019-05-09T09:46:50.180Z,100178.39
2019-05-09T09:49:21.537Z,100174.27
2019-05-09T09:51:54.031Z,100170.66
2019-05-09T09:54:27.936Z,100173.83
2019-05-09T09:56:58.727Z,100167.85
2019-05-09T09:59:37.854Z,100176.60
2019-05-09T10:02:11.171Z,100186.75
2019-05-09T10:04:42.610Z,100187.87
2019-05-09T10:07:16.099Z,100182.48
2019-05-09T10:09:53.202Z,100186.31
2019-05-09T10:12:28.717Z,100184.80
2019-05-09T10:15:01.393Z,100181.05
2019-05-09T10:17:44.568Z,100183.20
2019-05-09T10:20:32.624Z,100189.55
2019-05-09T10:23:15.035Z,100184.67
2019-05-09T10:25:38.471Z,100188.41
2019-05-09T10:28:09.898Z,100188.48
2019-05-09T10:30:41.722Z,100190.66
2019-05-09T10:33:17.551Z,100193.80
2019-05-09T10:35:48.973Z,100196.11
2019-05-09T10:38:20.640Z,100195.81
2019-05-09T10:40:53.522Z,100200.75
2019-05-09T10:43:35.714Z,100204.53
2019-05-09T10:46:22.949Z,100199.02
2019-05-09T10:48:58.637Z,100194.45
2019-05-09T10:51:30.771Z,100189.00
2019-05-09T10:54:04.094Z,100189.50
2019-05-09T10:56:38.369Z,100195.05
2019-05-09T10:59:09.703Z,100197.13
2019-05-09T11:01:49.374Z,100204.02
2019-05-09T11:04:21.294Z,100206.59
2019-05-09T11:06:59.638Z,100208.38
2019-05-09T11:09:32.123Z,100210.22
2019-05-09T11:12:07.905Z,100204.76
2019-05-09T11:14:41.918Z,100211.66
2019-05-09T11:17:21.416Z,100209.44
2019-05-09T11:19:50.026Z,100212.41
2019-05-09T11:22:23.686Z,100217.72
2019-05-09T11:24:57.743Z,100213.56
2019-05-09T11:27:29.471Z,100215.23
2019-05-09T11:30:18.788Z,100201.69
2019-05-09T11:32:50.687Z,100207.09
2019-05-09T11:35:23.946Z,100206.30
2019-05-09T11:37:55.660Z,100209.29
2019-05-09T11:40:28.126Z,100205.70
2019-05-09T11:43:01.264Z,100206.53
2019-05-09T11:45:39.223Z,100193.53
2019-05-09T11:48:18.657Z,100211.20
2019-05-09T11:50:52.607Z,100213.45
2019-05-09T11:53:35.726Z,100216.19
2019-05-09T11:56:14.421Z,100215.34
2019-05-09T11:58:48.128Z,100222.22
2019-05-09T12:01:20.522Z,100211.80
2019-05-09T12:03:53.263Z,100216.34
2019-05-09T12:06:28.925Z,100203.65
2019-05-09T12:09:00.176Z,100202.04
2019-05-09T12:11:34.706Z,100214.64
2019-05-09T12:14:08.867Z,100211.68
2019-05-09T12:16:40.368Z,100209.77
2019-05-09T12:19:12.146Z,100202.27
2019-05-09T12:21:47.874Z,100206.61
2019-05-09T12:24:19.534Z,100190.48
2019-05-09T12:26:53.877Z,100199.29
2019-05-09T12:29:29.364Z,100213.05
2019-05-09T12:32:04.473Z,100213.66
2019-05-09T12:34:37.084Z,100208.65
2019-05-09T12:37:10.574Z,100189.51
2019-05-09T12:39:43.226Z,100198.61
2019-05-09T12:42:15.271Z,100207.58
2019-05-09T12:44:49.512Z,100205.95
2019-05-09T12:47:21.432Z,100215.09
2019-05-09T12:49:54.635Z,100212.45
2019-05-09T12:52:31.707Z,100206.09
2019-05-09T12:55:03.424Z,100200.09
2019-05-09T12:57:38.444Z,100201.22
2019-05-09T13:00:10.779Z,100218.33
2019-05-09T13:02:42.730Z,100230.63
2019-05-09T13:05:14.044Z,100243.12
2019-05-09T13:07:47.885Z,100234.17
2019-05-09T13:10:19.702Z,100241.42
2019-05-09T13:12:59.520Z,100243.82
2019-05-09T13:15:32.643Z,100245.22
2019-05-09T13:18:04.194Z,100246.98
2019-05-09T13:20:38.212Z,100235.48
2019-05-09T13:23:10.808Z,100224.55
2019-05-09T13:25:42.418Z,100232.80
2019-05-09T13:28:14.995Z,100240.44
2019-05-09T13:30:50.026Z,100249.95
2019-05-09T13:33:21.438Z,100256.16
2019-05-09T13:35:53.384Z,100257.11
2019-05-09T13:38:29.167Z,100268.42
2019-05-09T13:41:00.848Z,100275.11
2019-05-09T13:43:35.067Z,100284.06
2019-05-09T13:46:09.028Z,100284.13
2019-05-09T13:49:05.358Z,100298.36
2019-05-09T13:51:18.082Z,100303.88
2019-05-09T13:53:48.537Z,100303.72
2019-05-09T13:56:20.845Z,100314.22
2019-05-09T13:58:55.072Z,100303.47
2019-05-09T14:01:27.963Z,100303.11
2019-05-09T14:04:02.911Z,100303.22
2019-05-09T14:06:38.882Z,100312.12
2019-05-09T14:09:38.512Z,100318.23
2019-05-09T14:12:10.677Z,100320.15
2019-05-09T14:14:44.536Z,100308.99
2019-05-09T14:17:19.055Z,100309.74
2019-05-09T14:19:51.376Z,100317.18
2019-05-09T14:22:26.141Z,100315.64
2019-05-09T14:25:00.788Z,100314.17
2019-05-09T14:27:32.286Z,100303.45
2019-05-09T14:30:07.826Z,100311.37
2019-05-09T14:32:40.488Z,100304.19
2019-05-09T14:35:12.421Z,100302.81
2019-05-09T14:37:45.333Z,100307.34
2019-05-09T14:40:18.790Z,100319.98
2019-05-09T14:42:53.322Z,100315.84
2019-05-09T14:45:27.992Z,100315.08
2019-05-09T14:48:00.267Z,100309.26
2019-05-09T14:50:31.957Z,100313.81
2019-05-09T14:53:03.437Z,100309.45
2019-05-09T14:55:34.799Z,100316.56
2019-05-09T14:58:07.871Z,100311.47
2019-05-09T15:00:39.991Z,100306.91
2019-05-09T15:03:13.672Z,100304.61
2019-05-09T15:05:47.997Z,100318.49
2019-05-09T15:08:19.412Z,100320.96
2019-05-09T15:10:50.676Z,100321.35
2019-05-09T15:13:24.139Z,100322.22
2019-05-09T15:15:57.848Z,100326.86
2019-05-09T15:18:30.009Z,100328.31
2019-05-09T15:21:03.441Z,100324.98
2019-05-09T15:23:39.185Z,100327.47
2019-05-09T15:26:11.851Z,100333.73
2019-05-09T15:28:44.710Z,100339.94
2019-05-09T15:31:18.301Z,100340.48
2019-05-09T15:33:49.884Z,100344.38
2019-05-09T15:36:21.702Z,100353.08
2019-05-09T15:38:53.815Z,100350.55
2019-05-09T15:41:30.475Z,100359.48
2019-05-09T15:44:02.219Z,100361.04
2019-05-09T15:46:42.730Z,100365.85
2019-05-09T15:49:14.358Z,100362.31
2019-05-09T15:51:47.809Z,100358.50
2019-05-09T15:54:19.433Z,100361.84
2019-05-09T15:56:51.219Z,100368.89
2019-05-09T15:59:22.683Z,100376.16
2019-05-09T16:01:55.508Z,100379.68
2019-05-09T16:04:28.504Z,100387.02
2019-05-09T16:07:02.157Z,100394.39
2019-05-09T16:09:34.264Z,100396.23
2019-05-09T16:12:07.787Z,100397.77
2019-05-09T16:14:39.890Z,100393.41
2019-05-09T16:17:11.274Z,100401.50
2019-05-09T16:19:42.782Z,100397.02
2019-05-09T16:22:15.349Z,100398.86
2019-05-09T16:24:48.580Z,100400.70
2019-05-09T16:27:21.463Z,100395.83
2019-05-09T16:29:52.907Z,100407.55
2019-05-09T16:32:24.356Z,100410.40
2019-05-09T16:34:55.924Z,100421.32
2019-05-09T16:37:28.341Z,100417.30
2019-05-09T16:40:00.915Z,100430.55
2019-05-09T16:42:38.135Z,100426.72
2019-05-09T16:45:10.115Z,100432.24
2019-05-09T16:47:42.081Z,100433.58
2019-05-09T16:50:14.828Z,100436.11
2019-05-09T16:52:48.770Z,100441.63
2019-05-09T16:55:21.108Z,100436.95
2019-05-09T16:57:52.946Z,100442.84
2019-05-09T17:00:42.474Z,100443.81
2019-05-09T17:03:14.048Z,100437.14
2019-05-09T17:05:45.451Z,100448.70
2019-05-09T17:08:17.745Z,100454.89
2019-05-09T17:10:53.146Z,100453.55
2019-05-09T17:13:24.722Z,100451.55
2019-05-09T17:15:56.406Z,100451.23
2019-05-09T17:18:28.368Z,100457.25
2019-05-09T17:21:17.798Z,100459.95
2019-05-09T17:23:39.563Z,100469.00
2019-05-09T17:26:11.634Z,100474.36
2019-05-09T17:28:43.425Z,100442.02
2019-05-09T17:31:14.834Z,100471.33
2019-05-09T17:33:48.473Z,100479.03
2019-05-09T17:36:19.459Z,100494.45
2019-05-09T17:38:50.862Z,100494.45
2019-05-09T17:41:22.883Z,100496.45
2019-05-09T17:43:55.315Z,100508.20
2019-05-09T17:46:29.176Z,100499.13
2019-05-09T17:49:00.859Z,100506.52
2019-05-09T17:51:36.156Z,100509.20
2019-05-09T17:54:08.167Z,100515.88
2019-05-09T17:56:43.165Z,100516.39
2019-05-09T17:59:18.173Z,100525.45
2019-05-09T18:01:48.621Z,100528.95
2019-05-09T18:04:20.427Z,100527.27
2019-05-09T18:06:53.100Z,100531.80
2019-05-09T18:09:24.808Z,100533.65
2019-05-09T18:11:57.820Z,100531.30
2019-05-09T18:14:29.684Z,100526.11
2019-05-09T18:17:03.843Z,100528.25
2019-05-09T18:19:37.928Z,100523.57
2019-05-09T18:22:09.134Z,100532.27
2019-05-09T18:24:41.555Z,100530.42
2019-05-09T18:27:18.130Z,100538.63
2019-05-09T18:29:49.987Z,100534.27
2019-05-09T18:32:27.387Z,100532.23
2019-05-09T18:35:13.680Z,100532.06
2019-05-09T18:37:45.422Z,100534.58
2019-05-09T18:40:18.095Z,100533.67
2019-05-09T18:42:50.708Z,100519.92
2019-05-09T18:45:22.807Z,100536.13
2019-05-09T18:47:58.249Z,100533.77
2019-05-09T18:50:30.993Z,100535.08
2019-05-09T18:53:02.498Z,100534.88
2019-05-09T18:55:34.230Z,100542.66
2019-05-09T18:58:06.965Z,100547.03
2019-05-09T19:00:43.828Z,100541.36
2019-05-09T19:03:15.580Z,100536.33
2019-05-09T19:05:47.738Z,100540.52
2019-05-09T19:08:19.553Z,100547.41
2019-05-09T19:10:52.409Z,100541.08
2019-05-09T19:13:24.189Z,100539.06
2019-05-09T19:15:58.835Z,100539.73
2019-05-09T19:18:38.048Z,100530.89
2019-05-09T19:21:14.696Z,100535.90
2019-05-09T19:23:51.436Z,100531.70
2019-05-09T19:26:37.191Z,100532.37
2019-05-09T19:29:10.516Z,100531.39
2019-05-09T19:31:42.921Z,100527.95
2019-05-09T19:34:14.431Z,100526.89
2019-05-09T19:36:45.959Z,100523.52
2019-05-09T19:39:17.304Z,100527.00
2019-05-09T19:41:49.070Z,100527.81
2019-05-09T19:44:24.006Z,100523.94
2019-05-09T19:46:56.258Z,100534.73
2019-05-09T19:49:28.969Z,100541.11
2019-05-09T19:52:00.679Z,100547.52
2019-05-09T19:54:32.402Z,100550.52
2019-05-09T19:57:04.004Z,100544.84
2019-05-09T19:59:35.599Z,100545.52
2019-05-09T20:02:07.970Z,100550.33
2019-05-09T20:04:39.351Z,100542.09
2019-05-09T20:07:11.993Z,100549.08
2019-05-09T20:10:01.548Z,100546.05
2019-05-09T20:12:34.955Z,100547.75
2019-05-09T20:15:09.096Z,100549.89
2019-05-09T20:17:41.197Z,100565.34
2019-05-09T20:20:13.130Z,100563.61
2019-05-09T20:22:52.660Z,100571.67
2019-05-09T20:25:18.226Z,100576.04
2019-05-09T20:27:50.844Z,100576.41
2019-05-09T20:30:22.947Z,100578.09
2019-05-09T20:32:56.105Z,100574.98
2019-05-09T20:35:27.866Z,100578.50
2019-05-09T20:37:59.787Z,100582.56
2019-05-09T20:40:32.412Z,100580.23
2019-05-09T20:43:04.439Z,100581.58
2019-05-09T20:45:36.739Z,100586.26
2019-05-09T20:48:09.992Z,100583.59
2019-05-09T20:50:44.580Z,100580.23
2019-05-09T20:53:18.802Z,100579.88
2019-05-09T20:55:50.948Z,100581.58
2019-05-09T20:58:22.766Z,100582.20
2019-05-09T21:00:54.389Z,100576.54
2019-05-09T21:03:27.155Z,100581.41
2019-05-09T21:05:58.780Z,100581.27
2019-05-09T21:08:30.420Z,100586.08
2019-05-09T21:11:04.512Z,100578.20
2019-05-09T21:13:47.950Z,100587.50
2019-05-09T21:16:11.478Z,100587.32
2019-05-09T21:18:43.121Z,100588.66
2019-05-09T21:21:14.649Z,100588.30
2019-05-09T21:23:46.265Z,100586.13
2019-05-09T21:26:20.055Z,100565.66
2019-05-09T21:28:52.009Z,100608.41
2019-05-09T21:31:24.320Z,100609.25
2019-05-09T21:33:56.307Z,100605.42
2019-05-09T21:36:30.575Z,100606.41
2019-05-09T21:39:02.193Z,100612.95
2019-05-09T21:41:34.939Z,100621.47
2019-05-09T21:44:08.307Z,100614.78
2019-05-09T21:46:40.011Z,100624.33
2019-05-09T21:49:14.089Z,100628.69
2019-05-09T21:51:47.053Z,100626.34
2019-05-09T21:54:22.711Z,100620.13
2019-05-09T21:56:54.659Z,100617.90
2019-05-09T21:59:26.134Z,100610.55
2019-05-09T22:01:58.305Z,100610.55
2019-05-09T22:04:29.917Z,100606.48
2019-05-09T22:07:01.804Z,100601.98
2019-05-09T22:09:33.577Z,100608.84
2019-05-09T22:12:05.958Z,100605.31
2019-05-09T22:14:37.704Z,100608.80
2019-05-09T22:17:13.749Z,100607.81
2019-05-09T22:19:45.707Z,100605.14
2019-05-09T22:22:17.388Z,100609.90
2019-05-09T22:24:48.989Z,100604.41
2019-05-09T22:27:21.731Z,100610.67
2019-05-09T22:29:53.477Z,100614.49
2019-05-09T22:32:25.244Z,100618.95
2019-05-09T22:34:56.920Z,100622.59
2019-05-09T22:37:28.542Z,100629.81
2019-05-09T22:40:00.305Z,100630.55
2019-05-09T22:42:31.883Z,100633.89
2019-05-09T22:45:04.193Z,100643.05
2019-05-09T22:47:35.776Z,100654.97
2019-05-09T22:50:08.839Z,100651.27
2019-05-09T22:52:40.817Z,100651.31
2019-05-09T22:55:12.638Z,100647.30
2019-05-09T22:57:44.192Z,100653.49
2019-05-09T23:00:16.293Z,100650.95
2019-05-09T23:02:50.940Z,100656.97
2019-05-09T23:05:22.430Z,100651.62
2019-05-09T23:07:54.030Z,100652.16
2019-05-09T23:10:25.375Z,100650.77
2019-05-09T23:12:57.357Z,100656.80
2019-05-09T23:15:28.745Z,100649.31
2019-05-09T23:18:00.079Z,100652.65
2019-05-09T23:20:38.842Z,100651.98
2019-05-09T23:23:22.245Z,100651.02
2019-05-09T23:25:54.364Z,100647.00
2019-05-09T23:28:27.309Z,100641.64
2019-05-09T23:31:01.053Z,100635.28
2019-05-09T23:33:34.197Z,100626.63
2019-05-09T23:36:06.334Z,100623.11
2019-05-09T23:38:39.603Z,100626.81
2019-05-09T23:41:11.626Z,100631.69
2019-05-09T23:43:43.333Z,100588.06
2019-05-09T23:46:15.347Z,100612.45
2019-05-09T23:48:47.100Z,100615.72
2019-05-09T23:51:19.884Z,100615.23
2019-05-09T23:53:53.897Z,100622.77
2019-05-09T23:56:42.972Z,100615.41
2019-05-09T23:59:32.717Z,100621.08
